createdAt,value
2022-08-26T00:01:33.252Z,19.05
2022-08-26T00:04:01.712Z,18.87
2022-08-26T00:06:30.263Z,18.81
2022-08-26T00:08:56.875Z,18.81
2022-08-26T00:11:26.605Z,18.85
2022-08-26T00:13:54.995Z,18.86
2022-08-26T00:16:23.668Z,18.81
2022-08-26T00:18:50.693Z,18.75
2022-08-26T00:21:17.314Z,18.76
2022-08-26T00:23:44.338Z,18.91
2022-08-26T00:26:11.391Z,18.79
2022-08-26T00:28:39.472Z,18.65
2022-08-26T00:31:07.472Z,18.55
2022-08-26T00:33:38.225Z,18.57
2022-08-26T00:36:05.946Z,18.77
2022-08-26T00:38:33.000Z,18.87
2022-08-26T00:41:00.440Z,18.81
2022-08-26T00:43:27.336Z,18.75
2022-08-26T00:46:14.234Z,18.82
2022-08-26T00:48:44.001Z,18.72
2022-08-26T00:51:22.132Z,18.68
2022-08-26T00:53:57.763Z,18.48
2022-08-26T00:56:38.272Z,18.32
2022-08-26T00:59:08.136Z,18.27
2022-08-26T01:01:35.566Z,18.23
2022-08-26T01:04:02.683Z,18.06
2022-08-26T01:06:30.016Z,18.03
2022-08-26T01:08:57.781Z,18.04
2022-08-26T01:11:25.282Z,18.02
2022-08-26T01:13:58.677Z,17.95
2022-08-26T01:16:25.776Z,17.97
2022-08-26T01:18:59.787Z,17.88
2022-08-26T01:21:29.442Z,18.01
2022-08-26T01:23:58.114Z,17.95
2022-08-26T01:26:29.991Z,17.83
2022-08-26T01:29:00.204Z,17.79
2022-08-26T01:31:38.341Z,17.64
2022-08-26T01:34:12.389Z,17.77
2022-08-26T01:36:39.896Z,17.64
2022-08-26T01:39:07.854Z,17.58
2022-08-26T01:41:36.508Z,17.56
2022-08-26T01:44:06.695Z,17.64
2022-08-26T01:46:37.017Z,17.60
2022-08-26T01:49:06.784Z,17.61
2022-08-26T01:51:37.706Z,17.51
2022-08-26T01:54:07.222Z,17.42
2022-08-26T01:56:38.959Z,17.46
2022-08-26T01:59:11.309Z,17.50
2022-08-26T02:01:39.253Z,17.44
2022-08-26T02:04:05.786Z,17.34
2022-08-26T02:06:32.870Z,17.37
2022-08-26T02:09:02.806Z,17.50
2022-08-26T02:11:31.130Z,17.44
2022-08-26T02:14:03.771Z,17.34
2022-08-26T02:16:37.165Z,17.51
2022-08-26T02:19:05.890Z,17.41
2022-08-26T02:21:35.296Z,17.50
2022-08-26T02:24:10.765Z,17.32
2022-08-26T02:26:39.603Z,17.24
2022-08-26T02:29:10.844Z,17.18
2022-08-26T02:31:38.209Z,17.19
2022-08-26T02:34:10.752Z,17.11
2022-08-26T02:36:38.535Z,17.28
2022-08-26T02:39:06.782Z,17.26
2022-08-26T02:41:34.282Z,17.26
2022-08-26T02:44:00.937Z,17.09
2022-08-26T02:46:29.902Z,17.11
2022-08-26T02:48:57.625Z,17.06
2022-08-26T02:51:24.962Z,17.07
2022-08-26T02:53:51.602Z,17.07
2022-08-26T02:56:18.326Z,17.09
2022-08-26T02:58:44.887Z,17.12
2022-08-26T03:01:27.124Z,17.25
2022-08-26T03:03:54.761Z,17.21
2022-08-26T03:06:22.131Z,17.13
2022-08-26T03:08:49.703Z,17.15
2022-08-26T03:11:16.871Z,17.09
2022-08-26T03:13:43.424Z,17.02
2022-08-26T03:16:10.167Z,16.96
2022-08-26T03:18:37.162Z,16.94
2022-08-26T03:21:12.889Z,17.03
2022-08-26T03:23:41.725Z,17.09
2022-08-26T03:26:11.425Z,16.96
2022-08-26T03:28:58.118Z,16.92
2022-08-26T03:31:25.434Z,16.93
2022-08-26T03:33:52.470Z,16.97
2022-08-26T03:36:21.038Z,16.97
2022-08-26T03:38:48.032Z,16.80
2022-08-26T03:41:15.437Z,16.76
2022-08-26T03:43:41.976Z,16.83
2022-08-26T03:46:12.016Z,16.77
2022-08-26T03:48:39.757Z,16.75
2022-08-26T03:51:13.234Z,16.69
2022-08-26T03:53:39.854Z,16.72
2022-08-26T03:56:06.862Z,16.64
2022-08-26T03:58:33.741Z,16.67
2022-08-26T04:01:00.498Z,16.61
2022-08-26T04:03:46.178Z,16.60
2022-08-26T04:06:13.283Z,16.54
2022-08-26T04:08:40.107Z,16.49
2022-08-26T04:11:07.108Z,16.61
2022-08-26T04:13:34.360Z,16.66
2022-08-26T04:16:00.993Z,16.65
2022-08-26T04:18:33.026Z,16.48
2022-08-26T04:21:08.074Z,16.34
2022-08-26T04:23:46.898Z,16.35
2022-08-26T04:26:14.007Z,16.30
2022-08-26T04:28:40.542Z,16.23
2022-08-26T04:31:11.182Z,16.24
2022-08-26T04:33:41.623Z,16.25
2022-08-26T04:36:09.069Z,16.32
2022-08-26T04:38:35.798Z,16.45
2022-08-26T04:41:03.417Z,16.65
2022-08-26T04:43:32.277Z,16.66
2022-08-26T04:46:05.136Z,16.83
2022-08-26T04:48:33.162Z,16.87
2022-08-26T04:51:00.021Z,16.98
2022-08-26T04:53:28.286Z,17.05
2022-08-26T04:55:55.267Z,17.10
2022-08-26T04:58:24.509Z,17.23
2022-08-26T05:00:54.016Z,17.38
2022-08-26T05:03:21.519Z,17.52
2022-08-26T05:05:52.386Z,17.58
2022-08-26T05:08:21.215Z,17.53
2022-08-26T05:10:51.268Z,17.57
2022-08-26T05:13:20.571Z,17.58
2022-08-26T05:15:48.492Z,17.58
2022-08-26T05:18:17.692Z,17.62
2022-08-26T05:20:49.682Z,17.75
2022-08-26T05:23:18.142Z,17.75
2022-08-26T05:25:47.481Z,17.98
2022-08-26T05:28:16.065Z,18.07
2022-08-26T05:30:42.858Z,18.10
2022-08-26T05:33:12.116Z,18.25
2022-08-26T05:35:39.306Z,18.38
2022-08-26T05:38:12.930Z,18.50
2022-08-26T05:40:45.782Z,18.53
2022-08-26T05:43:13.568Z,18.69
2022-08-26T05:45:46.325Z,18.71
2022-08-26T05:48:14.735Z,18.76
2022-08-26T05:50:48.410Z,18.93
2022-08-26T05:53:17.713Z,19.08
2022-08-26T05:55:47.420Z,19.25
2022-08-26T05:58:15.374Z,19.27
2022-08-26T06:00:44.648Z,19.44
2022-08-26T06:03:11.512Z,19.48
2022-08-26T06:05:40.118Z,19.56
2022-08-26T06:08:16.477Z,19.58
2022-08-26T06:10:48.678Z,19.70
2022-08-26T06:13:19.625Z,19.86
2022-08-26T06:15:48.818Z,20.10
2022-08-26T06:18:18.770Z,20.44
2022-08-26T06:20:56.930Z,20.68
2022-08-26T06:23:42.902Z,20.95
2022-08-26T06:26:11.196Z,21.01
2022-08-26T06:28:37.882Z,21.10
2022-08-26T06:31:05.707Z,21.36
2022-08-26T06:33:32.572Z,21.58
2022-08-26T06:36:01.132Z,21.76
2022-08-26T06:38:28.112Z,21.89
2022-08-26T06:40:54.964Z,22.02
2022-08-26T06:43:24.671Z,22.15
2022-08-26T06:45:52.479Z,22.27
2022-08-26T06:48:20.522Z,22.27
2022-08-26T06:50:48.043Z,22.36
2022-08-26T06:53:17.090Z,22.47
2022-08-26T06:55:46.158Z,22.62
2022-08-26T06:58:14.249Z,22.95
2022-08-26T07:00:41.671Z,23.05
2022-08-26T07:03:14.207Z,23.35
2022-08-26T07:05:40.791Z,23.42
2022-08-26T07:08:07.577Z,23.67
2022-08-26T07:10:35.664Z,23.75
2022-08-26T07:13:02.789Z,24.16
2022-08-26T07:15:31.506Z,24.18
2022-08-26T07:17:58.269Z,24.37
2022-08-26T07:20:25.032Z,24.53
2022-08-26T07:22:51.661Z,24.70
2022-08-26T07:25:19.313Z,24.85
2022-08-26T07:27:46.859Z,25.11
2022-08-26T07:30:20.916Z,25.15
2022-08-26T07:32:47.609Z,25.15
2022-08-26T07:35:14.828Z,25.36
2022-08-26T07:37:42.490Z,25.76
2022-08-26T07:40:09.563Z,25.75
2022-08-26T07:42:36.151Z,25.63
2022-08-26T07:45:02.796Z,25.59
2022-08-26T07:47:29.488Z,25.46
2022-08-26T07:49:57.516Z,25.58
2022-08-26T07:52:27.557Z,25.77
2022-08-26T07:54:56.506Z,25.86
2022-08-26T07:57:24.236Z,25.69
2022-08-26T07:59:51.405Z,25.45
2022-08-26T08:02:20.677Z,25.51
2022-08-26T08:04:47.550Z,25.58
2022-08-26T08:07:14.470Z,26.01
2022-08-26T08:09:41.075Z,25.79
2022-08-26T08:12:07.761Z,25.80
2022-08-26T08:14:36.536Z,25.78
2022-08-26T08:17:04.188Z,26.02
2022-08-26T08:19:38.940Z,26.25
2022-08-26T08:22:06.792Z,26.46
2022-08-26T08:24:44.303Z,26.52
2022-08-26T08:27:11.052Z,26.81
2022-08-26T08:29:38.663Z,27.11
2022-08-26T08:32:05.603Z,27.42
2022-08-26T08:34:38.326Z,27.17
2022-08-26T08:37:08.610Z,27.27
2022-08-26T08:39:37.206Z,27.54
2022-08-26T08:42:41.556Z,27.48
2022-08-26T08:45:12.784Z,27.68
2022-08-26T08:47:43.090Z,27.84
2022-08-26T08:50:21.737Z,27.88
2022-08-26T08:53:02.261Z,28.11
2022-08-26T08:55:44.264Z,28.24
2022-08-26T08:58:29.115Z,28.28
2022-08-26T09:01:04.704Z,28.54
2022-08-26T09:04:13.535Z,28.44
2022-08-26T09:06:45.690Z,28.34
2022-08-26T09:09:23.294Z,28.30
2022-08-26T09:11:50.077Z,28.41
2022-08-26T09:14:16.870Z,28.32
2022-08-26T09:16:51.880Z,28.26
2022-08-26T09:19:33.695Z,28.66
2022-08-26T09:22:04.635Z,28.62
2022-08-26T09:24:40.885Z,29.11
2022-08-26T09:27:09.219Z,29.27
2022-08-26T09:29:43.834Z,29.08
2022-08-26T09:32:25.303Z,29.17
2022-08-26T09:34:53.647Z,29.01
2022-08-26T09:37:42.450Z,29.03
2022-08-26T09:40:34.977Z,29.03
2022-08-26T09:43:09.839Z,29.20
2022-08-26T09:45:38.918Z,29.28
2022-08-26T09:48:07.205Z,29.23
2022-08-26T09:50:51.399Z,29.31
2022-08-26T09:53:25.328Z,29.30
2022-08-26T09:56:34.877Z,29.23
2022-08-26T09:59:03.345Z,29.32
2022-08-26T10:01:44.320Z,29.19
2022-08-26T10:04:20.829Z,29.26
2022-08-26T10:07:03.861Z,29.23
2022-08-26T10:09:35.624Z,29.49
2022-08-26T10:12:10.947Z,29.65
2022-08-26T10:14:51.168Z,29.61
2022-08-26T10:17:40.276Z,29.54
2022-08-26T10:20:24.787Z,29.73
2022-08-26T10:23:05.267Z,29.74
2022-08-26T10:25:38.170Z,29.39
2022-08-26T10:28:30.227Z,29.36
2022-08-26T10:31:04.589Z,29.45
2022-08-26T10:33:31.673Z,29.23
2022-08-26T10:36:01.903Z,29.13
2022-08-26T10:38:46.874Z,29.51
2022-08-26T10:41:17.035Z,29.42
2022-08-26T10:43:56.412Z,29.09
2022-08-26T10:46:27.092Z,29.25
2022-08-26T10:49:03.221Z,29.42
2022-08-26T10:51:38.604Z,29.38
2022-08-26T10:54:19.772Z,29.51
2022-08-26T10:56:59.643Z,29.57
2022-08-26T10:59:45.884Z,29.80
2022-08-26T11:02:33.634Z,29.75
2022-08-26T11:05:04.531Z,29.41
2022-08-26T11:07:45.835Z,28.92
2022-08-26T11:10:21.486Z,29.05
2022-08-26T11:12:55.956Z,29.23
2022-08-26T11:15:28.092Z,28.81
2022-08-26T11:17:59.580Z,28.84
2022-08-26T11:20:29.948Z,28.75
2022-08-26T11:23:17.216Z,28.55
2022-08-26T11:25:55.909Z,28.75
2022-08-26T11:28:48.390Z,28.61
2022-08-26T11:31:27.057Z,28.72
2022-08-26T11:34:00.481Z,29.05
2022-08-26T11:36:35.866Z,29.21
2022-08-26T11:39:25.537Z,29.29
2022-08-26T11:41:55.542Z,29.53
2022-08-26T11:44:38.199Z,29.80
2022-08-26T11:47:05.761Z,30.24
2022-08-26T11:49:38.191Z,30.54
2022-08-26T11:52:22.763Z,30.69
2022-08-26T11:55:12.105Z,30.57
2022-08-26T11:57:49.799Z,30.37
2022-08-26T12:00:24.042Z,30.31
2022-08-26T12:02:52.600Z,30.36
2022-08-26T12:05:30.986Z,30.65
2022-08-26T12:08:02.974Z,30.99
2022-08-26T12:10:32.790Z,31.64
2022-08-26T12:13:02.080Z,31.84
2022-08-26T12:15:32.023Z,32.23
2022-08-26T12:18:17.742Z,32.43
2022-08-26T12:20:48.491Z,32.83
2022-08-26T12:23:36.709Z,32.73
2022-08-26T12:26:21.192Z,32.25
2022-08-26T12:28:49.615Z,32.82
2022-08-26T12:31:29.234Z,32.54
2022-08-26T12:33:59.205Z,32.45
2022-08-26T12:36:43.045Z,32.21
2022-08-26T12:39:14.490Z,31.82
2022-08-26T12:41:45.576Z,31.22
2022-08-26T12:44:54.349Z,30.31
2022-08-26T12:47:41.927Z,30.47
2022-08-26T12:50:10.313Z,30.39
2022-08-26T12:53:01.858Z,30.08
2022-08-26T12:55:31.544Z,29.93
2022-08-26T12:58:16.099Z,29.81
2022-08-26T13:00:49.868Z,29.33
2022-08-26T13:03:35.151Z,29.15
2022-08-26T13:06:23.429Z,29.19
2022-08-26T13:09:09.017Z,28.78
2022-08-26T13:11:41.560Z,29.04
2022-08-26T13:14:21.029Z,28.76
2022-08-26T13:16:51.004Z,28.54
2022-08-26T13:19:20.660Z,28.79
2022-08-26T13:21:49.746Z,28.57
2022-08-26T13:24:31.019Z,28.32
2022-08-26T13:26:57.834Z,27.94
2022-08-26T13:29:24.574Z,27.95
2022-08-26T13:31:51.946Z,27.90
2022-08-26T13:34:21.897Z,28.17
2022-08-26T13:36:50.609Z,28.23
2022-08-26T13:39:17.956Z,28.24
2022-08-26T13:41:44.661Z,28.32
2022-08-26T13:44:11.424Z,28.16
2022-08-26T13:46:38.238Z,27.96
2022-08-26T13:49:05.596Z,28.18
2022-08-26T13:51:32.719Z,28.08
2022-08-26T13:54:00.302Z,27.65
2022-08-26T13:56:29.752Z,27.58
2022-08-26T13:58:57.712Z,27.74
2022-08-26T14:01:25.050Z,27.92
2022-08-26T14:03:52.010Z,27.39
2022-08-26T14:06:19.371Z,27.60
2022-08-26T14:08:47.007Z,27.78
2022-08-26T14:11:13.675Z,27.93
2022-08-26T14:13:40.487Z,27.83
2022-08-26T14:16:24.408Z,27.78
2022-08-26T14:18:51.349Z,27.63
2022-08-26T14:21:18.927Z,27.50
2022-08-26T14:23:45.564Z,27.31
2022-08-26T14:26:14.301Z,27.50
2022-08-26T14:28:56.342Z,27.25
2022-08-26T14:31:24.040Z,26.95
2022-08-26T14:33:50.901Z,26.92
2022-08-26T14:36:30.936Z,26.51
2022-08-26T14:39:04.870Z,26.11
2022-08-26T14:41:33.089Z,26.02
2022-08-26T14:44:06.214Z,26.10
2022-08-26T14:46:39.396Z,26.07
2022-08-26T14:49:09.869Z,26.01
2022-08-26T14:51:37.295Z,25.76
2022-08-26T14:54:12.857Z,25.63
2022-08-26T14:57:05.556Z,25.58
2022-08-26T14:59:35.438Z,25.53
2022-08-26T15:02:02.438Z,25.59
2022-08-26T15:04:29.393Z,25.41
2022-08-26T15:06:58.789Z,25.25
2022-08-26T15:09:26.679Z,25.29
2022-08-26T15:11:53.537Z,25.16
2022-08-26T15:14:21.873Z,24.98
2022-08-26T15:16:54.041Z,25.05
2022-08-26T15:19:22.656Z,24.94
2022-08-26T15:21:49.415Z,25.05
2022-08-26T15:24:19.609Z,24.82
2022-08-26T15:26:46.906Z,24.81
2022-08-26T15:29:14.248Z,24.69
2022-08-26T15:31:41.060Z,24.53
2022-08-26T15:34:13.318Z,24.62
2022-08-26T15:36:45.004Z,24.58
2022-08-26T15:39:11.952Z,24.60
2022-08-26T15:41:38.759Z,24.61
2022-08-26T15:44:07.473Z,24.68
2022-08-26T15:46:35.290Z,24.79
2022-08-26T15:49:03.426Z,24.61
2022-08-26T15:51:33.460Z,24.70
2022-08-26T15:54:02.481Z,24.54
2022-08-26T15:56:34.819Z,24.75
2022-08-26T15:59:03.406Z,24.79
2022-08-26T16:01:32.129Z,24.69
2022-08-26T16:03:59.764Z,24.72
2022-08-26T16:06:30.683Z,24.70
2022-08-26T16:08:57.718Z,24.63
2022-08-26T16:11:25.679Z,24.55
2022-08-26T16:13:52.667Z,24.54
2022-08-26T16:16:19.859Z,24.55
2022-08-26T16:18:46.715Z,24.50
2022-08-26T16:21:19.498Z,24.45
2022-08-26T16:23:47.001Z,24.43
2022-08-26T16:26:17.454Z,24.29
2022-08-26T16:28:44.362Z,24.15
2022-08-26T16:31:11.822Z,24.01
2022-08-26T16:33:38.601Z,23.89
2022-08-26T16:36:06.839Z,23.75
2022-08-26T16:38:33.827Z,23.72
2022-08-26T16:41:01.256Z,23.67
2022-08-26T16:43:28.540Z,23.62
2022-08-26T16:45:55.226Z,23.63
2022-08-26T16:48:21.870Z,23.57
2022-08-26T16:50:49.419Z,23.52
2022-08-26T16:53:16.231Z,23.58
2022-08-26T16:55:50.234Z,23.45
2022-08-26T16:58:17.730Z,23.40
2022-08-26T17:00:45.352Z,23.42
2022-08-26T17:03:12.442Z,23.56
2022-08-26T17:05:40.205Z,23.32
2022-08-26T17:08:07.244Z,23.27
2022-08-26T17:10:34.135Z,23.27
2022-08-26T17:13:00.870Z,23.33
2022-08-26T17:15:27.726Z,23.25
2022-08-26T17:17:54.978Z,23.14
2022-08-26T17:20:23.370Z,22.95
2022-08-26T17:22:51.647Z,22.95
2022-08-26T17:25:26.067Z,22.92
2022-08-26T17:27:53.188Z,23.09
2022-08-26T17:30:21.205Z,23.15
2022-08-26T17:32:48.365Z,23.23
2022-08-26T17:35:15.953Z,23.17
2022-08-26T17:37:43.201Z,23.10
2022-08-26T17:40:12.713Z,22.99
2022-08-26T17:42:40.216Z,22.77
2022-08-26T17:45:08.345Z,22.81
2022-08-26T17:47:35.108Z,22.60
2022-08-26T17:50:02.663Z,22.52
2022-08-26T17:52:30.439Z,22.55
2022-08-26T17:54:57.491Z,22.48
2022-08-26T17:57:25.316Z,22.54
2022-08-26T17:59:52.839Z,22.40
2022-08-26T18:02:21.155Z,22.41
2022-08-26T18:04:48.170Z,22.34
2022-08-26T18:07:15.538Z,22.43
2022-08-26T18:09:42.289Z,22.33
2022-08-26T18:12:09.531Z,22.37
2022-08-26T18:14:36.188Z,22.36
2022-08-26T18:17:03.695Z,22.27
2022-08-26T18:19:31.391Z,22.19
2022-08-26T18:21:58.407Z,22.31
2022-08-26T18:24:25.123Z,22.17
2022-08-26T18:26:51.721Z,22.26
2022-08-26T18:29:19.742Z,22.37
2022-08-26T18:31:46.629Z,22.13
2022-08-26T18:34:15.453Z,22.24
2022-08-26T18:36:43.752Z,22.12
2022-08-26T18:39:11.697Z,22.20
2022-08-26T18:41:46.841Z,22.10
2022-08-26T18:44:16.190Z,21.95
2022-08-26T18:46:43.834Z,22.05
2022-08-26T18:49:15.146Z,22.11
2022-08-26T18:51:43.038Z,21.91
2022-08-26T18:54:10.005Z,21.96
2022-08-26T18:56:38.050Z,21.92
2022-08-26T18:59:07.566Z,21.83
2022-08-26T19:01:35.814Z,21.79
2022-08-26T19:04:05.267Z,21.77
2022-08-26T19:06:33.329Z,21.71
2022-08-26T19:09:00.320Z,21.60
2022-08-26T19:11:32.362Z,21.42
2022-08-26T19:14:07.988Z,21.43
2022-08-26T19:16:35.471Z,21.50
2022-08-26T19:19:02.170Z,21.52
2022-08-26T19:21:29.789Z,21.44
2022-08-26T19:24:00.987Z,21.28
2022-08-26T19:26:28.519Z,21.21
2022-08-26T19:28:55.413Z,21.18
2022-08-26T19:31:22.324Z,21.22
2022-08-26T19:33:49.277Z,21.21
2022-08-26T19:36:23.702Z,21.15
2022-08-26T19:38:50.794Z,21.02
2022-08-26T19:41:20.521Z,20.88
2022-08-26T19:43:47.545Z,20.68
2022-08-26T19:46:19.975Z,20.62
2022-08-26T19:48:47.978Z,20.69
2022-08-26T19:51:21.101Z,20.69
2022-08-26T19:53:48.927Z,20.63
2022-08-26T19:56:16.398Z,20.53
2022-08-26T19:58:43.759Z,20.33
2022-08-26T20:01:11.104Z,20.11
2022-08-26T20:03:37.818Z,20.08
2022-08-26T20:06:07.210Z,19.94
2022-08-26T20:08:35.704Z,19.82
2022-08-26T20:11:06.022Z,19.67
2022-08-26T20:13:33.365Z,19.65
2022-08-26T20:15:59.967Z,19.54
2022-08-26T20:18:45.190Z,19.48
2022-08-26T20:21:28.221Z,19.48
2022-08-26T20:24:16.836Z,19.52
2022-08-26T20:26:45.018Z,19.48
2022-08-26T20:29:15.074Z,19.53
2022-08-26T20:31:42.385Z,19.55
2022-08-26T20:34:09.073Z,19.47
2022-08-26T20:36:38.348Z,19.49
2022-08-26T20:39:05.400Z,19.41
2022-08-26T20:41:32.210Z,19.34
2022-08-26T20:43:59.389Z,19.42
2022-08-26T20:46:26.291Z,19.58
2022-08-26T20:48:54.089Z,19.59
2022-08-26T20:51:23.582Z,19.59
2022-08-26T20:53:50.881Z,19.78
2022-08-26T20:56:23.628Z,19.89
2022-08-26T20:58:55.370Z,19.92
2022-08-26T21:01:25.337Z,19.89
2022-08-26T21:03:53.925Z,19.89
2022-08-26T21:06:20.853Z,19.95
2022-08-26T21:08:48.413Z,20.09
2022-08-26T21:11:15.731Z,20.19
2022-08-26T21:14:01.587Z,20.25
2022-08-26T21:16:29.245Z,20.41
2022-08-26T21:18:56.230Z,20.36
2022-08-26T21:21:25.170Z,20.22
2022-08-26T21:23:52.144Z,20.27
2022-08-26T21:26:18.965Z,20.41
2022-08-26T21:28:46.407Z,20.45
2022-08-26T21:31:15.587Z,20.47
2022-08-26T21:33:42.614Z,20.42
2022-08-26T21:36:10.310Z,20.36
2022-08-26T21:38:37.476Z,20.24
2022-08-26T21:41:07.712Z,20.15
2022-08-26T21:43:36.772Z,20.13
2022-08-26T21:46:14.616Z,20.11
2022-08-26T21:48:50.035Z,20.11
2022-08-26T21:51:20.156Z,20.07
2022-08-26T21:53:46.978Z,20.07
2022-08-26T21:56:15.604Z,20.06
2022-08-26T21:58:42.321Z,20.00
2022-08-26T22:01:13.224Z,19.93
2022-08-26T22:03:46.716Z,19.88
2022-08-26T22:06:15.654Z,19.81
2022-08-26T22:08:42.245Z,19.77
2022-08-26T22:11:09.756Z,19.71
2022-08-26T22:13:38.658Z,19.66
2022-08-26T22:16:06.093Z,19.63
2022-08-26T22:18:33.690Z,19.61
2022-08-26T22:21:04.364Z,19.61
2022-08-26T22:23:31.060Z,19.68
2022-08-26T22:25:58.657Z,19.65
2022-08-26T22:28:26.141Z,19.68
2022-08-26T22:30:53.084Z,19.64
2022-08-26T22:33:19.865Z,19.73
2022-08-26T22:35:49.053Z,19.72
2022-08-26T22:38:16.557Z,19.61
2022-08-26T22:40:46.507Z,19.59
2022-08-26T22:43:13.676Z,19.62
2022-08-26T22:45:43.239Z,19.63
2022-08-26T22:48:12.189Z,19.63
2022-08-26T22:50:38.893Z,19.58
2022-08-26T22:53:05.485Z,19.72
2022-08-26T22:55:32.060Z,19.59
2022-08-26T22:57:59.115Z,19.66
2022-08-26T23:00:31.964Z,19.70
2022-08-26T23:03:00.667Z,19.63
2022-08-26T23:05:27.698Z,19.85
2022-08-26T23:07:56.428Z,19.92
2022-08-26T23:10:23.895Z,19.95
2022-08-26T23:12:52.627Z,20.02
2022-08-26T23:15:21.073Z,19.92
2022-08-26T23:17:48.539Z,19.84
2022-08-26T23:20:27.559Z,19.78
2022-08-26T23:22:55.351Z,19.74
2022-08-26T23:25:22.862Z,19.73
2022-08-26T23:27:51.550Z,19.64
2022-08-26T23:30:22.449Z,19.61
2022-08-26T23:32:49.870Z,19.61
2022-08-26T23:35:20.557Z,19.62
2022-08-26T23:37:51.616Z,19.54
2022-08-26T23:40:25.506Z,19.61
2022-08-26T23:42:54.498Z,19.54
2022-08-26T23:45:21.672Z,19.49
2022-08-26T23:47:50.627Z,19.45
2022-08-26T23:50:19.964Z,19.55
2022-08-26T23:53:05.613Z,19.58
2022-08-26T23:55:39.356Z,19.48
2022-08-26T23:58:06.917Z,19.49
